Jefferson, Oregon
Current Conditions -  °F | °C
As of 9:56 AM on Thursday 23 Oct 2014 (Local Time) from KSLE Reporting Station
Overcast Overcast  
Wind Chill: 57°   Ceiling: 10000
Heat Index: 57°   Visibility: 10mi
Dew Point: 52°   Wind: 5mph
Humidity: 83%   Direction: 200°SSW
Pressure: 29.85"   Gusts: NA
Location:  44.72°N, 123.01°W
Report Text: KSLE 231656Z 20004KT 10SM OVC100 14/11 A2985 RMK AO2 SLP107 T01390111
Loading
Personal Weather Stations






























Interactive Weather Map
Tropical Storm Tracking
New forecast layout! Learn more

10-Day Weather Forecast

Advertisements
Track Severe Weather on mobile